sensor_id;sensor_type;location;lat;lon;timestamp;temperature;humidity
14733;DHT22;7457;50.960;6.830;2023-09-19T00:02:23;15.30;90.40
14733;DHT22;7457;50.960;6.830;2023-09-19T00:04:49;15.30;90.30
14733;DHT22;7457;50.960;6.830;2023-09-19T00:07:15;15.20;90.30
14733;DHT22;7457;50.960;6.830;2023-09-19T00:09:41;15.20;90.40
14733;DHT22;7457;50.960;6.830;2023-09-19T00:12:09;15.20;90.60
14733;DHT22;7457;50.960;6.830;2023-09-19T00:14:35;15.10;90.50
14733;DHT22;7457;50.960;6.830;2023-09-19T00:17:23;15.10;90.80
14733;DHT22;7457;50.960;6.830;2023-09-19T00:19:50;15.10;90.90
14733;DHT22;7457;50.960;6.830;2023-09-19T00:22:18;15.00;90.80
14733;DHT22;7457;50.960;6.830;2023-09-19T00:24:44;15.00;90.90
14733;DHT22;7457;50.960;6.830;2023-09-19T00:27:22;15.00;90.90
14733;DHT22;7457;50.960;6.830;2023-09-19T00:29:47;15.00;90.90
14733;DHT22;7457;50.960;6.830;2023-09-19T00:32:13;15.00;90.80
14733;DHT22;7457;50.960;6.830;2023-09-19T00:34:39;14.90;90.90
14733;DHT22;7457;50.960;6.830;2023-09-19T00:37:20;14.90;91.00
14733;DHT22;7457;50.960;6.830;2023-09-19T00:39:45;14.90;91.10
14733;DHT22;7457;50.960;6.830;2023-09-19T00:42:18;14.80;91.20
14733;DHT22;7457;50.960;6.830;2023-09-19T00:44:46;14.80;91.30
14733;DHT22;7457;50.960;6.830;2023-09-19T00:47:12;14.80;91.30
14733;DHT22;7457;50.960;6.830;2023-09-19T00:49:42;14.80;91.30
14733;DHT22;7457;50.960;6.830;2023-09-19T00:52:08;14.70;91.40
14733;DHT22;7457;50.960;6.830;2023-09-19T00:54:36;14.70;91.40
14733;DHT22;7457;50.960;6.830;2023-09-19T00:57:01;14.70;91.50
14733;DHT22;7457;50.960;6.830;2023-09-19T00:59:27;14.70;91.70
14733;DHT22;7457;50.960;6.830;2023-09-19T01:01:56;14.80;91.70
14733;DHT22;7457;50.960;6.830;2023-09-19T01:04:22;14.80;91.80
14733;DHT22;7457;50.960;6.830;2023-09-19T01:06:49;14.90;91.90
14733;DHT22;7457;50.960;6.830;2023-09-19T01:09:19;15.00;91.90
14733;DHT22;7457;50.960;6.830;2023-09-19T01:11:53;15.00;91.70
14733;DHT22;7457;50.960;6.830;2023-09-19T01:14:42;15.00;91.70
14733;DHT22;7457;50.960;6.830;2023-09-19T01:17:17;15.10;91.60
14733;DHT22;7457;50.960;6.830;2023-09-19T01:22:48;15.20;91.20
14733;DHT22;7457;50.960;6.830;2023-09-19T01:31:09;15.10;91.20
14733;DHT22;7457;50.960;6.830;2023-09-19T01:34:02;15.10;91.10
14733;DHT22;7457;50.960;6.830;2023-09-19T01:36:38;15.10;91.00
14733;DHT22;7457;50.960;6.830;2023-09-19T01:39:07;15.10;91.00
14733;DHT22;7457;50.960;6.830;2023-09-19T01:50:17;15.20;90.30
14733;DHT22;7457;50.960;6.830;2023-09-19T01:52:49;15.20;90.10
14733;DHT22;7457;50.960;6.830;2023-09-19T01:55:18;15.20;89.90
14733;DHT22;7457;50.960;6.830;2023-09-19T01:58:06;15.20;89.60
14733;DHT22;7457;50.960;6.830;2023-09-19T02:00:35;15.20;89.40
14733;DHT22;7457;50.960;6.830;2023-09-19T02:03:02;15.20;89.10
14733;DHT22;7457;50.960;6.830;2023-09-19T02:05:28;15.20;88.70
14733;DHT22;7457;50.960;6.830;2023-09-19T02:07:54;15.20;88.50
14733;DHT22;7457;50.960;6.830;2023-09-19T02:10:21;15.20;88.20
14733;DHT22;7457;50.960;6.830;2023-09-19T02:12:48;15.20;88.00
14733;DHT22;7457;50.960;6.830;2023-09-19T02:15:15;15.20;87.90
14733;DHT22;7457;50.960;6.830;2023-09-19T02:17:42;15.20;87.80
14733;DHT22;7457;50.960;6.830;2023-09-19T02:20:10;15.20;87.60
14733;DHT22;7457;50.960;6.830;2023-09-19T02:22:36;15.20;87.50
14733;DHT22;7457;50.960;6.830;2023-09-19T02:25:02;15.20;87.40
14733;DHT22;7457;50.960;6.830;2023-09-19T02:27:30;15.10;87.40
14733;DHT22;7457;50.960;6.830;2023-09-19T02:29:56;15.10;87.30
14733;DHT22;7457;50.960;6.830;2023-09-19T02:32:22;15.10;87.30
14733;DHT22;7457;50.960;6.830;2023-09-19T02:34:48;15.00;87.30
14733;DHT22;7457;50.960;6.830;2023-09-19T02:37:14;15.00;87.40
14733;DHT22;7457;50.960;6.830;2023-09-19T02:39:41;15.00;87.50
14733;DHT22;7457;50.960;6.830;2023-09-19T02:42:19;15.00;87.50
14733;DHT22;7457;50.960;6.830;2023-09-19T02:44:45;15.00;87.60
14733;DHT22;7457;50.960;6.830;2023-09-19T02:47:12;14.90;87.50
14733;DHT22;7457;50.960;6.830;2023-09-19T02:49:38;14.90;87.60
14733;DHT22;7457;50.960;6.830;2023-09-19T02:52:04;14.80;87.70
14733;DHT22;7457;50.960;6.830;2023-09-19T02:54:30;14.80;87.70
14733;DHT22;7457;50.960;6.830;2023-09-19T02:56:55;14.70;87.90
14733;DHT22;7457;50.960;6.830;2023-09-19T02:59:21;14.70;88.00
14733;DHT22;7457;50.960;6.830;2023-09-19T03:01:59;14.70;88.10
14733;DHT22;7457;50.960;6.830;2023-09-19T03:04:26;14.60;88.30
14733;DHT22;7457;50.960;6.830;2023-09-19T03:06:52;14.60;88.40
14733;DHT22;7457;50.960;6.830;2023-09-19T03:09:18;14.60;88.50
14733;DHT22;7457;50.960;6.830;2023-09-19T03:11:44;14.50;88.70
14733;DHT22;7457;50.960;6.830;2023-09-19T03:14:11;14.50;88.70
14733;DHT22;7457;50.960;6.830;2023-09-19T03:16:38;14.40;88.80
14733;DHT22;7457;50.960;6.830;2023-09-19T03:19:03;14.40;88.90
14733;DHT22;7457;50.960;6.830;2023-09-19T03:21:41;14.40;89.10
14733;DHT22;7457;50.960;6.830;2023-09-19T03:24:07;14.40;89.30
14733;DHT22;7457;50.960;6.830;2023-09-19T03:26:48;14.30;89.30
14733;DHT22;7457;50.960;6.830;2023-09-19T03:29:13;14.30;89.50
14733;DHT22;7457;50.960;6.830;2023-09-19T03:31:39;14.30;89.60
14733;DHT22;7457;50.960;6.830;2023-09-19T03:34:05;14.30;89.60
14733;DHT22;7457;50.960;6.830;2023-09-19T03:36:46;14.30;89.70
14733;DHT22;7457;50.960;6.830;2023-09-19T03:39:12;14.30;89.80
14733;DHT22;7457;50.960;6.830;2023-09-19T03:41:41;14.30;89.60
14733;DHT22;7457;50.960;6.830;2023-09-19T03:44:07;14.30;89.60
14733;DHT22;7457;50.960;6.830;2023-09-19T03:46:45;14.20;89.60
14733;DHT22;7457;50.960;6.830;2023-09-19T03:49:10;14.20;89.70
14733;DHT22;7457;50.960;6.830;2023-09-19T03:51:36;14.10;89.80
14733;DHT22;7457;50.960;6.830;2023-09-19T03:54:02;14.10;90.00
14733;DHT22;7457;50.960;6.830;2023-09-19T03:56:57;14.10;90.10
14733;DHT22;7457;50.960;6.830;2023-09-19T03:59:22;14.10;90.20
14733;DHT22;7457;50.960;6.830;2023-09-19T04:01:48;14.00;90.20
14733;DHT22;7457;50.960;6.830;2023-09-19T04:04:13;14.00;90.20
14733;DHT22;7457;50.960;6.830;2023-09-19T04:06:54;14.00;90.30
14733;DHT22;7457;50.960;6.830;2023-09-19T04:09:20;14.00;90.30
14733;DHT22;7457;50.960;6.830;2023-09-19T04:11:46;14.00;90.30
14733;DHT22;7457;50.960;6.830;2023-09-19T04:14:11;14.00;90.20
14733;DHT22;7457;50.960;6.830;2023-09-19T04:16:37;14.00;90.10
14733;DHT22;7457;50.960;6.830;2023-09-19T04:19:03;14.00;90.10
14733;DHT22;7457;50.960;6.830;2023-09-19T04:21:44;14.00;90.10
14733;DHT22;7457;50.960;6.830;2023-09-19T04:24:10;14.00;90.10
14733;DHT22;7457;50.960;6.830;2023-09-19T04:26:51;13.90;90.00
14733;DHT22;7457;50.960;6.830;2023-09-19T04:29:18;13.90;89.80
14733;DHT22;7457;50.960;6.830;2023-09-19T04:31:44;13.90;89.70
14733;DHT22;7457;50.960;6.830;2023-09-19T04:34:11;13.90;89.60
14733;DHT22;7457;50.960;6.830;2023-09-19T04:36:51;13.90;89.60
14733;DHT22;7457;50.960;6.830;2023-09-19T04:39:18;13.90;89.50
14733;DHT22;7457;50.960;6.830;2023-09-19T04:41:44;13.90;89.40
14733;DHT22;7457;50.960;6.830;2023-09-19T04:44:10;13.90;89.40
14733;DHT22;7457;50.960;6.830;2023-09-19T04:47:04;13.90;89.40
14733;DHT22;7457;50.960;6.830;2023-09-19T04:49:29;13.80;89.40
14733;DHT22;7457;50.960;6.830;2023-09-19T04:52:10;13.80;89.30
14733;DHT22;7457;50.960;6.830;2023-09-19T04:54:36;13.80;89.40
14733;DHT22;7457;50.960;6.830;2023-09-19T04:57:02;13.80;89.40
14733;DHT22;7457;50.960;6.830;2023-09-19T04:59:27;13.80;89.30
14733;DHT22;7457;50.960;6.830;2023-09-19T05:02:09;13.80;89.30
14733;DHT22;7457;50.960;6.830;2023-09-19T05:04:34;13.80;89.20
14733;DHT22;7457;50.960;6.830;2023-09-19T05:07:01;13.80;89.20
14733;DHT22;7457;50.960;6.830;2023-09-19T05:09:29;13.80;89.10
14733;DHT22;7457;50.960;6.830;2023-09-19T05:12:07;13.80;89.10
14733;DHT22;7457;50.960;6.830;2023-09-19T05:14:32;13.70;89.20
14733;DHT22;7457;50.960;6.830;2023-09-19T05:16:58;13.70;89.30
14733;DHT22;7457;50.960;6.830;2023-09-19T05:19:23;13.70;89.30
14733;DHT22;7457;50.960;6.830;2023-09-19T05:21:49;13.70;89.30
14733;DHT22;7457;50.960;6.830;2023-09-19T05:24:14;13.70;89.30
14733;DHT22;7457;50.960;6.830;2023-09-19T05:26:57;13.70;89.30
14733;DHT22;7457;50.960;6.830;2023-09-19T05:29:23;13.70;89.30
14733;DHT22;7457;50.960;6.830;2023-09-19T05:31:48;13.70;89.30
14733;DHT22;7457;50.960;6.830;2023-09-19T05:34:15;13.70;89.40
14733;DHT22;7457;50.960;6.830;2023-09-19T05:36:40;13.70;89.50
14733;DHT22;7457;50.960;6.830;2023-09-19T05:39:07;13.70;89.60
14733;DHT22;7457;50.960;6.830;2023-09-19T05:41:37;13.80;89.60
14733;DHT22;7457;50.960;6.830;2023-09-19T05:44:05;13.80;89.60
14733;DHT22;7457;50.960;6.830;2023-09-19T05:46:35;13.90;89.60
14733;DHT22;7457;50.960;6.830;2023-09-19T05:49:01;13.90;89.50
14733;DHT22;7457;50.960;6.830;2023-09-19T05:51:26;14.00;89.40
14733;DHT22;7457;50.960;6.830;2023-09-19T05:53:53;14.00;89.40
14733;DHT22;7457;50.960;6.830;2023-09-19T05:56:20;14.00;89.30
14733;DHT22;7457;50.960;6.830;2023-09-19T05:58:46;14.10;89.20
14733;DHT22;7457;50.960;6.830;2023-09-19T06:01:11;14.10;89.10
14733;DHT22;7457;50.960;6.830;2023-09-19T06:03:37;14.10;89.10
14733;DHT22;7457;50.960;6.830;2023-09-19T06:06:03;14.10;89.10
14733;DHT22;7457;50.960;6.830;2023-09-19T06:08:29;14.10;89.10
14733;DHT22;7457;50.960;6.830;2023-09-19T06:10:56;14.20;88.90
14733;DHT22;7457;50.960;6.830;2023-09-19T06:13:22;14.20;88.90
14733;DHT22;7457;50.960;6.830;2023-09-19T06:15:48;14.30;88.80
14733;DHT22;7457;50.960;6.830;2023-09-19T06:18:15;14.30;88.70
14733;DHT22;7457;50.960;6.830;2023-09-19T06:20:46;14.30;88.60
14733;DHT22;7457;50.960;6.830;2023-09-19T06:23:12;14.40;88.60
14733;DHT22;7457;50.960;6.830;2023-09-19T06:25:38;14.40;88.60
14733;DHT22;7457;50.960;6.830;2023-09-19T06:28:04;14.40;88.50
14733;DHT22;7457;50.960;6.830;2023-09-19T06:30:31;14.50;88.40
14733;DHT22;7457;50.960;6.830;2023-09-19T06:32:58;14.50;88.40
14733;DHT22;7457;50.960;6.830;2023-09-19T06:35:24;14.50;88.30
14733;DHT22;7457;50.960;6.830;2023-09-19T06:37:51;14.60;88.20
14733;DHT22;7457;50.960;6.830;2023-09-19T06:40:18;14.70;88.20
14733;DHT22;7457;50.960;6.830;2023-09-19T06:42:51;14.70;88.10
14733;DHT22;7457;50.960;6.830;2023-09-19T06:45:16;14.80;88.10
14733;DHT22;7457;50.960;6.830;2023-09-19T06:47:51;14.80;88.00
14733;DHT22;7457;50.960;6.830;2023-09-19T06:50:18;14.90;87.90
14733;DHT22;7457;50.960;6.830;2023-09-19T06:52:46;15.00;87.80
14733;DHT22;7457;50.960;6.830;2023-09-19T06:55:16;15.10;87.70
14733;DHT22;7457;50.960;6.830;2023-09-19T06:57:42;15.10;87.50
14733;DHT22;7457;50.960;6.830;2023-09-19T07:00:10;15.20;87.30
14733;DHT22;7457;50.960;6.830;2023-09-19T07:02:44;15.30;87.20
14733;DHT22;7457;50.960;6.830;2023-09-19T07:05:09;15.30;87.20
14733;DHT22;7457;50.960;6.830;2023-09-19T07:07:35;15.40;87.00
14733;DHT22;7457;50.960;6.830;2023-09-19T07:10:02;15.50;86.70
14733;DHT22;7457;50.960;6.830;2023-09-19T07:12:31;15.50;86.60
14733;DHT22;7457;50.960;6.830;2023-09-19T07:14:56;15.60;86.40
14733;DHT22;7457;50.960;6.830;2023-09-19T07:17:22;15.70;85.70
14733;DHT22;7457;50.960;6.830;2023-09-19T07:19:49;15.70;85.70
14733;DHT22;7457;50.960;6.830;2023-09-19T07:22:27;15.80;85.60
14733;DHT22;7457;50.960;6.830;2023-09-19T07:24:53;15.80;85.40
14733;DHT22;7457;50.960;6.830;2023-09-19T07:27:18;15.90;85.60
14733;DHT22;7457;50.960;6.830;2023-09-19T07:29:44;16.00;85.50
14733;DHT22;7457;50.960;6.830;2023-09-19T07:32:10;16.10;85.40
14733;DHT22;7457;50.960;6.830;2023-09-19T07:34:37;16.10;85.20
14733;DHT22;7457;50.960;6.830;2023-09-19T07:37:06;16.20;85.10
14733;DHT22;7457;50.960;6.830;2023-09-19T07:39:31;16.30;85.00
14733;DHT22;7457;50.960;6.830;2023-09-19T07:42:24;16.40;84.60
14733;DHT22;7457;50.960;6.830;2023-09-19T07:44:51;16.60;84.50
14733;DHT22;7457;50.960;6.830;2023-09-19T07:47:16;16.80;84.30
14733;DHT22;7457;50.960;6.830;2023-09-19T07:49:42;17.00;83.80
14733;DHT22;7457;50.960;6.830;2023-09-19T07:52:09;17.20;83.60
14733;DHT22;7457;50.960;6.830;2023-09-19T07:54:36;17.50;83.30
14733;DHT22;7457;50.960;6.830;2023-09-19T07:57:02;17.80;82.50
14733;DHT22;7457;50.960;6.830;2023-09-19T07:59:28;18.10;81.60
14733;DHT22;7457;50.960;6.830;2023-09-19T08:01:54;18.20;79.90
14733;DHT22;7457;50.960;6.830;2023-09-19T08:04:19;18.40;79.70
14733;DHT22;7457;50.960;6.830;2023-09-19T08:06:57;18.50;79.40
14733;DHT22;7457;50.960;6.830;2023-09-19T08:09:26;18.60;77.90
14733;DHT22;7457;50.960;6.830;2023-09-19T08:11:53;18.60;77.50
14733;DHT22;7457;50.960;6.830;2023-09-19T08:14:18;18.60;76.90
14733;DHT22;7457;50.960;6.830;2023-09-19T08:16:57;18.60;76.20
14733;DHT22;7457;50.960;6.830;2023-09-19T08:19:22;18.50;76.30
14733;DHT22;7457;50.960;6.830;2023-09-19T08:21:48;18.50;77.00
14733;DHT22;7457;50.960;6.830;2023-09-19T08:24:15;18.50;76.90
14733;DHT22;7457;50.960;6.830;2023-09-19T08:26:53;18.70;76.60
14733;DHT22;7457;50.960;6.830;2023-09-19T08:29:20;18.70;75.80
14733;DHT22;7457;50.960;6.830;2023-09-19T08:31:45;18.80;75.50
14733;DHT22;7457;50.960;6.830;2023-09-19T08:34:13;18.80;75.40
14733;DHT22;7457;50.960;6.830;2023-09-19T08:36:51;19.00;75.30
14733;DHT22;7457;50.960;6.830;2023-09-19T08:39:22;19.10;74.90
14733;DHT22;7457;50.960;6.830;2023-09-19T08:41:48;19.10;73.90
14733;DHT22;7457;50.960;6.830;2023-09-19T08:44:13;19.10;73.70
14733;DHT22;7457;50.960;6.830;2023-09-19T08:46:49;19.00;74.00
14733;DHT22;7457;50.960;6.830;2023-09-19T08:49:48;18.90;73.90
14733;DHT22;7457;50.960;6.830;2023-09-19T08:52:27;18.90;73.80
14733;DHT22;7457;50.960;6.830;2023-09-19T08:54:58;18.90;73.50
14733;DHT22;7457;50.960;6.830;2023-09-19T08:57:26;18.90;73.70
14733;DHT22;7457;50.960;6.830;2023-09-19T08:59:55;18.90;73.20
14733;DHT22;7457;50.960;6.830;2023-09-19T09:02:22;19.00;73.20
14733;DHT22;7457;50.960;6.830;2023-09-19T09:04:49;19.00;73.40
14733;DHT22;7457;50.960;6.830;2023-09-19T09:07:30;19.10;73.00
14733;DHT22;7457;50.960;6.830;2023-09-19T09:09:56;19.20;72.20
14733;DHT22;7457;50.960;6.830;2023-09-19T09:12:22;19.30;72.70
14733;DHT22;7457;50.960;6.830;2023-09-19T09:14:48;19.40;72.00
14733;DHT22;7457;50.960;6.830;2023-09-19T09:17:16;19.40;72.20
14733;DHT22;7457;50.960;6.830;2023-09-19T09:19:46;19.40;71.40
14733;DHT22;7457;50.960;6.830;2023-09-19T09:22:12;19.50;71.40
14733;DHT22;7457;50.960;6.830;2023-09-19T09:25:00;19.60;71.70
14733;DHT22;7457;50.960;6.830;2023-09-19T09:27:30;19.80;71.40
14733;DHT22;7457;50.960;6.830;2023-09-19T09:29:57;20.00;72.00
14733;DHT22;7457;50.960;6.830;2023-09-19T09:32:29;20.30;70.90
14733;DHT22;7457;50.960;6.830;2023-09-19T09:34:59;20.50;69.60
14733;DHT22;7457;50.960;6.830;2023-09-19T09:37:26;20.50;68.90
14733;DHT22;7457;50.960;6.830;2023-09-19T09:39:58;20.60;68.90
14733;DHT22;7457;50.960;6.830;2023-09-19T09:42:34;20.80;68.80
14733;DHT22;7457;50.960;6.830;2023-09-19T09:45:13;21.00;67.80
14733;DHT22;7457;50.960;6.830;2023-09-19T09:47:46;21.30;66.80
14733;DHT22;7457;50.960;6.830;2023-09-19T09:50:28;21.50;65.30
14733;DHT22;7457;50.960;6.830;2023-09-19T09:53:29;21.70;65.50
14733;DHT22;7457;50.960;6.830;2023-09-19T09:58:56;21.50;63.00
14733;DHT22;7457;50.960;6.830;2023-09-19T10:01:24;21.40;63.20
14733;DHT22;7457;50.960;6.830;2023-09-19T10:03:57;21.30;65.00
14733;DHT22;7457;50.960;6.830;2023-09-19T10:06:23;21.60;64.60
14733;DHT22;7457;50.960;6.830;2023-09-19T10:12:03;22.20;63.30
14733;DHT22;7457;50.960;6.830;2023-09-19T10:14:35;22.40;62.50
14733;DHT22;7457;50.960;6.830;2023-09-19T10:17:05;22.70;62.60
14733;DHT22;7457;50.960;6.830;2023-09-19T10:19:54;23.10;62.40
14733;DHT22;7457;50.960;6.830;2023-09-19T10:22:23;23.50;61.30
14733;DHT22;7457;50.960;6.830;2023-09-19T10:24:50;23.80;61.00
14733;DHT22;7457;50.960;6.830;2023-09-19T10:27:19;24.00;59.30
14733;DHT22;7457;50.960;6.830;2023-09-19T10:29:49;24.10;57.10
14733;DHT22;7457;50.960;6.830;2023-09-19T10:32:19;23.90;59.00
14733;DHT22;7457;50.960;6.830;2023-09-19T10:34:50;23.60;58.70
14733;DHT22;7457;50.960;6.830;2023-09-19T10:37:16;23.30;58.60
14733;DHT22;7457;50.960;6.830;2023-09-19T10:39:49;23.20;59.10
14733;DHT22;7457;50.960;6.830;2023-09-19T10:42:19;22.80;57.30
14733;DHT22;7457;50.960;6.830;2023-09-19T10:44:47;22.50;59.60
14733;DHT22;7457;50.960;6.830;2023-09-19T10:47:15;22.50;60.60
14733;DHT22;7457;50.960;6.830;2023-09-19T10:49:45;22.50;60.40
14733;DHT22;7457;50.960;6.830;2023-09-19T10:52:20;22.50;60.20
14733;DHT22;7457;50.960;6.830;2023-09-19T10:54:50;22.40;59.80
14733;DHT22;7457;50.960;6.830;2023-09-19T10:57:21;22.40;59.80
14733;DHT22;7457;50.960;6.830;2023-09-19T11:00:06;22.20;58.70
14733;DHT22;7457;50.960;6.830;2023-09-19T11:05:35;21.90;60.60
14733;DHT22;7457;50.960;6.830;2023-09-19T11:08:07;21.90;60.60
14733;DHT22;7457;50.960;6.830;2023-09-19T11:10:49;22.00;61.80
14733;DHT22;7457;50.960;6.830;2023-09-19T11:13:27;22.30;61.40
14733;DHT22;7457;50.960;6.830;2023-09-19T11:21:51;23.00;58.90
14733;DHT22;7457;50.960;6.830;2023-09-19T11:27:12;23.50;60.00
14733;DHT22;7457;50.960;6.830;2023-09-19T11:29:39;23.60;58.30
14733;DHT22;7457;50.960;6.830;2023-09-19T11:32:06;23.70;58.40
14733;DHT22;7457;50.960;6.830;2023-09-19T11:34:38;23.80;57.90
14733;DHT22;7457;50.960;6.830;2023-09-19T11:39:39;24.00;58.40
14733;DHT22;7457;50.960;6.830;2023-09-19T11:48:23;24.90;58.30
14733;DHT22;7457;50.960;6.830;2023-09-19T11:50:53;25.20;56.10
14733;DHT22;7457;50.960;6.830;2023-09-19T11:53:19;25.30;55.60
14733;DHT22;7457;50.960;6.830;2023-09-19T11:55:45;25.40;55.20
14733;DHT22;7457;50.960;6.830;2023-09-19T11:58:14;25.40;53.80
14733;DHT22;7457;50.960;6.830;2023-09-19T12:00:43;25.40;53.70
14733;DHT22;7457;50.960;6.830;2023-09-19T12:03:11;25.40;53.70
14733;DHT22;7457;50.960;6.830;2023-09-19T12:05:39;25.50;53.30
14733;DHT22;7457;50.960;6.830;2023-09-19T12:08:05;25.60;53.10
14733;DHT22;7457;50.960;6.830;2023-09-19T12:10:50;25.70;53.30
14733;DHT22;7457;50.960;6.830;2023-09-19T12:13:19;25.70;52.50
14733;DHT22;7457;50.960;6.830;2023-09-19T12:15:46;25.60;53.20
14733;DHT22;7457;50.960;6.830;2023-09-19T12:18:28;25.60;53.10
14733;DHT22;7457;50.960;6.830;2023-09-19T12:20:55;25.50;50.70
14733;DHT22;7457;50.960;6.830;2023-09-19T12:23:21;25.20;50.60
14733;DHT22;7457;50.960;6.830;2023-09-19T12:25:47;24.90;50.60
14733;DHT22;7457;50.960;6.830;2023-09-19T12:28:18;24.50;50.60
14733;DHT22;7457;50.960;6.830;2023-09-19T12:30:43;24.00;50.10
14733;DHT22;7457;50.960;6.830;2023-09-19T12:33:19;23.60;52.40
14733;DHT22;7457;50.960;6.830;2023-09-19T12:35:54;23.30;53.30
14733;DHT22;7457;50.960;6.830;2023-09-19T12:38:26;23.00;53.20
14733;DHT22;7457;50.960;6.830;2023-09-19T12:40:59;22.90;54.10
14733;DHT22;7457;50.960;6.830;2023-09-19T12:43:26;22.80;52.80
14733;DHT22;7457;50.960;6.830;2023-09-19T12:45:52;22.60;55.30
14733;DHT22;7457;50.960;6.830;2023-09-19T12:51:18;22.30;54.30
14733;DHT22;7457;50.960;6.830;2023-09-19T12:53:57;22.20;56.10
14733;DHT22;7457;50.960;6.830;2023-09-19T12:56:23;22.10;55.60
14733;DHT22;7457;50.960;6.830;2023-09-19T13:01:16;21.90;56.30
14733;DHT22;7457;50.960;6.830;2023-09-19T13:03:42;21.70;55.90
14733;DHT22;7457;50.960;6.830;2023-09-19T13:06:07;21.50;57.40
14733;DHT22;7457;50.960;6.830;2023-09-19T13:08:37;21.50;57.50
14733;DHT22;7457;50.960;6.830;2023-09-19T13:14:13;21.70;56.70
14733;DHT22;7457;50.960;6.830;2023-09-19T13:17:37;21.80;57.80
14733;DHT22;7457;50.960;6.830;2023-09-19T13:19:50;22.00;57.10
14733;DHT22;7457;50.960;6.830;2023-09-19T13:25:19;22.20;55.90
14733;DHT22;7457;50.960;6.830;2023-09-19T13:27:55;22.20;55.70
14733;DHT22;7457;50.960;6.830;2023-09-19T13:30:25;22.00;56.20
14733;DHT22;7457;50.960;6.830;2023-09-19T13:32:52;21.90;56.20
14733;DHT22;7457;50.960;6.830;2023-09-19T13:35:18;21.90;56.50
14733;DHT22;7457;50.960;6.830;2023-09-19T13:37:45;21.90;56.60
14733;DHT22;7457;50.960;6.830;2023-09-19T13:40:15;21.90;56.10
14733;DHT22;7457;50.960;6.830;2023-09-19T13:42:42;21.80;57.00
14733;DHT22;7457;50.960;6.830;2023-09-19T13:45:08;21.80;57.40
14733;DHT22;7457;50.960;6.830;2023-09-19T13:47:37;21.90;57.80
14733;DHT22;7457;50.960;6.830;2023-09-19T13:50:04;22.00;57.60
14733;DHT22;7457;50.960;6.830;2023-09-19T13:52:30;22.10;56.90
14733;DHT22;7457;50.960;6.830;2023-09-19T13:54:57;22.20;55.90
14733;DHT22;7457;50.960;6.830;2023-09-19T13:57:23;22.10;55.80
14733;DHT22;7457;50.960;6.830;2023-09-19T13:59:49;22.10;56.00
14733;DHT22;7457;50.960;6.830;2023-09-19T14:02:15;22.00;56.40
14733;DHT22;7457;50.960;6.830;2023-09-19T14:04:43;21.80;56.10
14733;DHT22;7457;50.960;6.830;2023-09-19T14:07:21;21.70;57.00
14733;DHT22;7457;50.960;6.830;2023-09-19T14:09:47;21.50;56.50
14733;DHT22;7457;50.960;6.830;2023-09-19T14:12:13;21.30;57.00
14733;DHT22;7457;50.960;6.830;2023-09-19T14:14:39;21.20;57.40
14733;DHT22;7457;50.960;6.830;2023-09-19T14:17:05;21.00;57.50
14733;DHT22;7457;50.960;6.830;2023-09-19T14:19:32;20.80;57.90
14733;DHT22;7457;50.960;6.830;2023-09-19T14:21:58;20.70;58.50
14733;DHT22;7457;50.960;6.830;2023-09-19T14:24:25;20.60;59.60
14733;DHT22;7457;50.960;6.830;2023-09-19T14:26:51;20.60;59.30
14733;DHT22;7457;50.960;6.830;2023-09-19T14:29:16;20.60;59.20
14733;DHT22;7457;50.960;6.830;2023-09-19T14:31:43;20.60;59.20
14733;DHT22;7457;50.960;6.830;2023-09-19T14:34:09;20.50;59.40
14733;DHT22;7457;50.960;6.830;2023-09-19T14:36:59;20.40;59.70
14733;DHT22;7457;50.960;6.830;2023-09-19T14:39:25;20.40;60.20
14733;DHT22;7457;50.960;6.830;2023-09-19T14:41:50;20.30;60.40
14733;DHT22;7457;50.960;6.830;2023-09-19T14:44:16;20.30;60.70
14733;DHT22;7457;50.960;6.830;2023-09-19T14:46:42;20.40;61.50
14733;DHT22;7457;50.960;6.830;2023-09-19T14:49:10;20.50;61.70
14733;DHT22;7457;50.960;6.830;2023-09-19T14:51:37;20.70;60.90
14733;DHT22;7457;50.960;6.830;2023-09-19T14:54:05;20.90;60.90
14733;DHT22;7457;50.960;6.830;2023-09-19T14:56:38;21.00;60.50
14733;DHT22;7457;50.960;6.830;2023-09-19T14:59:05;21.10;60.00
14733;DHT22;7457;50.960;6.830;2023-09-19T15:01:32;21.20;59.50
14733;DHT22;7457;50.960;6.830;2023-09-19T15:03:57;21.10;59.30
14733;DHT22;7457;50.960;6.830;2023-09-19T15:06:54;20.90;59.10
14733;DHT22;7457;50.960;6.830;2023-09-19T15:09:21;20.70;59.20
14733;DHT22;7457;50.960;6.830;2023-09-19T15:11:52;20.50;59.60
14733;DHT22;7457;50.960;6.830;2023-09-19T15:14:18;20.30;59.90
14733;DHT22;7457;50.960;6.830;2023-09-19T15:16:53;20.20;60.00
14733;DHT22;7457;50.960;6.830;2023-09-19T15:19:19;20.00;60.20
14733;DHT22;7457;50.960;6.830;2023-09-19T15:21:44;19.90;60.70
14733;DHT22;7457;50.960;6.830;2023-09-19T15:24:10;19.80;61.00
14733;DHT22;7457;50.960;6.830;2023-09-19T15:26:36;19.80;61.30
14733;DHT22;7457;50.960;6.830;2023-09-19T15:29:08;19.80;61.80
14733;DHT22;7457;50.960;6.830;2023-09-19T15:31:35;19.80;62.10
14733;DHT22;7457;50.960;6.830;2023-09-19T15:34:04;19.80;62.10
14733;DHT22;7457;50.960;6.830;2023-09-19T15:36:31;19.80;62.10
14733;DHT22;7457;50.960;6.830;2023-09-19T15:38:59;19.80;62.10
14733;DHT22;7457;50.960;6.830;2023-09-19T15:41:26;19.80;61.90
14733;DHT22;7457;50.960;6.830;2023-09-19T15:43:53;19.80;61.80
14733;DHT22;7457;50.960;6.830;2023-09-19T15:46:19;19.70;61.60
14733;DHT22;7457;50.960;6.830;2023-09-19T15:48:45;19.70;61.80
14733;DHT22;7457;50.960;6.830;2023-09-19T15:51:11;19.70;61.80
14733;DHT22;7457;50.960;6.830;2023-09-19T15:53:46;19.70;62.20
14733;DHT22;7457;50.960;6.830;2023-09-19T15:56:13;19.70;62.20
14733;DHT22;7457;50.960;6.830;2023-09-19T15:58:40;19.70;62.20
14733;DHT22;7457;50.960;6.830;2023-09-19T16:01:06;19.70;62.30
14733;DHT22;7457;50.960;6.830;2023-09-19T16:03:39;19.70;62.40
14733;DHT22;7457;50.960;6.830;2023-09-19T16:06:09;19.70;62.50
14733;DHT22;7457;50.960;6.830;2023-09-19T16:08:38;19.70;62.40
14733;DHT22;7457;50.960;6.830;2023-09-19T16:11:03;19.80;62.50
14733;DHT22;7457;50.960;6.830;2023-09-19T16:13:29;19.80;62.50
14733;DHT22;7457;50.960;6.830;2023-09-19T16:15:55;19.80;62.80
14733;DHT22;7457;50.960;6.830;2023-09-19T16:18:20;19.80;62.30
14733;DHT22;7457;50.960;6.830;2023-09-19T16:20:47;19.80;62.30
14733;DHT22;7457;50.960;6.830;2023-09-19T16:23:12;19.70;62.20
14733;DHT22;7457;50.960;6.830;2023-09-19T16:25:38;19.70;61.90
14733;DHT22;7457;50.960;6.830;2023-09-19T16:28:04;19.60;62.00
14733;DHT22;7457;50.960;6.830;2023-09-19T16:30:32;19.60;61.80
14733;DHT22;7457;50.960;6.830;2023-09-19T16:32:59;19.50;62.20
14733;DHT22;7457;50.960;6.830;2023-09-19T16:35:25;19.50;62.30
14733;DHT22;7457;50.960;6.830;2023-09-19T16:37:50;19.50;62.70
14733;DHT22;7457;50.960;6.830;2023-09-19T16:40:16;19.50;63.00
14733;DHT22;7457;50.960;6.830;2023-09-19T16:42:42;19.40;62.90
14733;DHT22;7457;50.960;6.830;2023-09-19T16:45:09;19.40;62.90
14733;DHT22;7457;50.960;6.830;2023-09-19T16:47:37;19.40;62.50
14733;DHT22;7457;50.960;6.830;2023-09-19T16:50:03;19.30;62.20
14733;DHT22;7457;50.960;6.830;2023-09-19T16:52:31;19.30;62.40
14733;DHT22;7457;50.960;6.830;2023-09-19T16:54:56;19.20;62.60